Torm Horizon — OYNM2 — position and weather

sailwx.info

Track history (hours):
 
Tides and Currents Weather Stations Pressure Air Temp Water Temp Dewpoint Dewpoint Depression Visibility Wind Speed Wind Dir Waves Ship Positions

Torm Horizon

Last reported at 2017-Oct-17 21:59 UTC. Time now 2017-Oct-20 19:55 UTC.
Position N 46°20' E 030°39'.

Length 183 m; draft 7 m.

Type: Tanker. MMSI: 220566000.

Date/timePositionNaut miles runAvg speedWind from/ knotsBaromVisibWave heightAir tempDewpointWater temp
2017-Oct-17 21:59N 46°20' E 030°39'4 3.7
2017-Oct-17 20:57N 46°19' E 030°44'4 6.2
2017-Oct-17 20:14N 46°17' E 030°50'2 6.7
2017-Oct-17 20:00N 46°17' E 030°53'4 6.8
2017-Oct-17 19:27N 46°17' E 030°58'11311.4
2017-Oct-17 09:29N 44°26' E 030°20'713.7
2017-Oct-17 08:57N 44°20' E 030°16'2 4.0
2017-Oct-17 08:30N 44°18' E 030°16'1 1.4
2017-Oct-17 08:00N 44°17' E 030°15'4311.1
2017-Oct-17 04:06N 43°35' E 030°02'0 2.7
2017-Oct-17 04:00N 43°35' E 030°02'0 0.7
2017-Oct-17 03:31N 43°35' E 030°02'0 0.5
2017-Oct-17 03:01N 43°34' E 030°02'0 0.4
2017-Oct-17 02:30N 43°34' E 030°02'0 0.3
2017-Oct-17 02:01N 43°34' E 030°02'0 0.4
2017-Oct-17 01:30N 43°34' E 030°02'0 0.3
2017-Oct-17 01:00N 43°34' E 030°02'0 0.2
2017-Oct-17 00:31N 43°34' E 030°02'0 0.1
2017-Oct-17 00:01N 43°34' E 030°01'0 0.1
2017-Oct-16 23:30N 43°34' E 030°01'0 0.1
2017-Oct-16 23:00N 43°34' E 030°01'0 0.2
2017-Oct-16 22:30N 43°34' E 030°01'0 0.1
2017-Oct-16 22:01N 43°34' E 030°01'1 2.4
2017-Oct-16 21:30N 43°33' E 029°60'5 9.1
2017-Oct-16 21:01N 43°30' E 029°55'4 8.7
2017-Oct-16 20:31N 43°27' E 029°51'3 6.2
2017-Oct-16 20:00N 43°24' E 029°49'3 6.4
2017-Oct-16 19:30N 43°21' E 029°50'3 6.7
2017-Oct-16 19:01N 43°18' E 029°51'3 6.7
2017-Oct-16 18:30N 43°14' E 029°51'31 3.2
2017-Oct-16 08:55N 42°43' E 029°50'11110.1
2017-Oct-15 21:58N 40°59' E 028°60'3 6.5
2017-Oct-15 21:26N 40°56' E 028°59'5 5.0
2017-Oct-15 20:28N 40°56' E 028°52'0 0.0
2017-Oct-15 14:31N 40°56' E 028°52'0 0.0
2017-Oct-14 17:13N 40°56' E 028°52'4 0.4
2017-Oct-14 05:58N 40°52' E 028°51'14511.0
2017-Oct-13 16:46N 39°55' E 025°57'136 4.6
2017-Oct-12 11:25N 37°39' E 025°53'511.7
2017-Oct-12 11:00N 37°34' E 025°52'611.6
2017-Oct-12 10:30N 37°28' E 025°51'  
Track history (hours):
 
Tides and Currents Weather Stations Pressure Air Temp Water Temp Dewpoint Dewpoint Depression Visibility Wind Speed Wind Dir Waves Ship Positions

Torm Horizon

Last reported at 2017-Oct-17 21:59 UTC. Time now 2017-Oct-20 19:55 UTC.
Position N 46°20' E 030°39'.

Length 183 m; draft 7 m.

Type: Tanker. MMSI: 220566000.

Date/timePositionNaut miles runAvg speedWind from/ knotsBaromVisibWave heightAir tempDewpointWater temp
2017-Oct-17 21:59N 46°20' E 030°39'4 3.7
2017-Oct-17 20:57N 46°19' E 030°44'4 6.2
2017-Oct-17 20:14N 46°17' E 030°50'2 6.7
2017-Oct-17 20:00N 46°17' E 030°53'4 6.8
2017-Oct-17 19:27N 46°17' E 030°58'11311.4
2017-Oct-17 09:29N 44°26' E 030°20'713.7
2017-Oct-17 08:57N 44°20' E 030°16'2 4.0
2017-Oct-17 08:30N 44°18' E 030°16'1 1.4
2017-Oct-17 08:00N 44°17' E 030°15'4311.1
2017-Oct-17 04:06N 43°35' E 030°02'0 2.7
2017-Oct-17 04:00N 43°35' E 030°02'0 0.7
2017-Oct-17 03:31N 43°35' E 030°02'0 0.5
2017-Oct-17 03:01N 43°34' E 030°02'0 0.4
2017-Oct-17 02:30N 43°34' E 030°02'0 0.3
2017-Oct-17 02:01N 43°34' E 030°02'0 0.4
2017-Oct-17 01:30N 43°34' E 030°02'0 0.3
2017-Oct-17 01:00N 43°34' E 030°02'0 0.2
2017-Oct-17 00:31N 43°34' E 030°02'0 0.1
2017-Oct-17 00:01N 43°34' E 030°01'0 0.1
2017-Oct-16 23:30N 43°34' E 030°01'0 0.1
2017-Oct-16 23:00N 43°34' E 030°01'0 0.2
2017-Oct-16 22:30N 43°34' E 030°01'0 0.1
2017-Oct-16 22:01N 43°34' E 030°01'1 2.4
2017-Oct-16 21:30N 43°33' E 029°60'5 9.1
2017-Oct-16 21:01N 43°30' E 029°55'4 8.7
2017-Oct-16 20:31N 43°27' E 029°51'3 6.2
2017-Oct-16 20:00N 43°24' E 029°49'3 6.4
2017-Oct-16 19:30N 43°21' E 029°50'3 6.7
2017-Oct-16 19:01N 43°18' E 029°51'3 6.7
2017-Oct-16 18:30N 43°14' E 029°51'31 3.2
2017-Oct-16 08:55N 42°43' E 029°50'11110.1
2017-Oct-15 21:58N 40°59' E 028°60'3 6.5
2017-Oct-15 21:26N 40°56' E 028°59'5 5.0
2017-Oct-15 20:28N 40°56' E 028°52'0 0.0
2017-Oct-15 14:31N 40°56' E 028°52'0 0.0
2017-Oct-14 17:13N 40°56' E 028°52'4 0.4
2017-Oct-14 05:58N 40°52' E 028°51'14511.0
2017-Oct-13 16:46N 39°55' E 025°57'136 4.6
2017-Oct-12 11:25N 37°39' E 025°53'511.7
2017-Oct-12 11:00N 37°34' E 025°52'611.6
2017-Oct-12 10:30N 37°28' E 025°51'  

Dump ship's entire track history